CST,Max TemperatureF,Mean TemperatureF,Min TemperatureF,Max Dew PointF,MeanDew PointF,Min DewpointF,Max Humidity, Mean Humidity, Min Humidity, Max Sea Level PressureIn, Mean Sea Level PressureIn, Min Sea Level PressureIn, Max VisibilityMiles, Mean VisibilityMiles, Min VisibilityMiles, Max Wind SpeedMPH, Mean Wind SpeedMPH, Max Gust SpeedMPH,PrecipitationIn, CloudCover, Events, WindDirDegrees
2014-1-1,63,50,37,54,45,34,93,75,56,30.29,30.14,30.03,10,9,3,12,4,17,0.05,6,Rain,157
2014-1-2,58,45,32,55,35,19,100,65,29,30.42,30.20,30.01,10,9,5,29,12,36,0.00,2,,324
2014-1-3,45,36,27,23,21,17,75,54,33,30.51,30.40,30.27,10,10,10,12,4,14,0.00,0,,82
2014-1-4,63,43,23,47,35,20,88,70,52,30.26,30.11,29.97,10,10,10,18,9,22,0.00,3,,141
2014-1-5,65,47,29,61,43,18,100,80,59,30.35,29.99,29.86,10,8,2,29,13,36,0.19,6,Rain,301
2014-1-6,31,27,22,18,11,5,68,52,35,30.66,30.58,30.38,10,10,10,25,10,30,0.00,0,,328
2014-1-7,39,28,17,16,11,3,80,52,24,30.70,30.60,30.51,10,10,10,9,3,12,0.00,0,,146
2014-1-8,45,33,20,35,22,15,84,64,43,30.49,30.39,30.31,10,10,8,14,6,18,0.02,6,Rain,134
2014-1-9,66,52,38,53,44,33,100,80,60,30.30,30.23,30.16,10,10,10,16,8,20,T,6,Rain,142
2014-1-10,67,58,48,64,57,46,100,93,86,30.14,29.95,29.78,10,5,0,20,9,23,0.47,7,Fog-Rain-Thunderstorm,152
2014-1-11,67,54,40,64,50,29,100,62,24,30.12,29.94,29.80,10,8,0,21,6,26,0.00,2,Fog,279
2014-1-12,70,51,32,44,36,32,100,63,26,30.18,30.09,30.01,10,10,10,17,6,24,T,1,Rain,164
2014-1-13,71,60,49,61,51,32,100,71,42,30.08,29.93,29.82,10,8,2,23,7,30,0.70,6,Rain,208
2014-1-14,67,51,34,40,34,29,92,58,24,30.16,30.09,30.04,10,10,8,23,3,28,0.00,0,,239
2014-1-15,53,41,29,37,27,19,82,55,28,30.35,30.24,30.17,10,10,10,21,9,31,T,0,Rain,313
2014-1-16,66,48,29,37,31,24,85,58,31,30.19,30.11,30.03,10,10,10,21,7,28,0.00,0,,218
2014-1-17,55,42,29,31,22,16,70,46,22,30.29,30.23,30.12,10,10,10,21,7,28,T,1,,303
2014-1-18,63,44,25,45,30,17,92,58,23,30.29,30.19,30.10,10,10,10,17,8,23,0.00,0,,192
2014-1-19,63,50,36,47,33,24,100,63,25,30.27,30.18,30.09,10,10,9,12,4,14,0.00,0,,305
2014-1-20,71,51,31,54,43,28,96,72,47,30.13,30.02,29.92,10,10,8,14,4,17,0.00,0,,184
2014-1-21,57,46,34,53,23,10,93,56,18,30.26,30.18,29.99,10,10,10,24,11,31,0.00,0,,335
2014-1-22,57,41,24,36,26,19,81,55,29,30.27,30.20,30.13,10,10,7,12,5,13,0.00,0,,131
2014-1-23,46,36,25,37,27,21,92,66,40,30.71,30.51,30.19,10,5,1,21,10,31,0.09,7,Rain-Snow,31
2014-1-24,30,25,19,22,17,9,88,65,42,30.71,30.61,30.37,10,6,1,14,4,18,0.00,7,Snow,30
2014-1-25,57,37,17,35,27,16,100,68,36,30.33,30.16,30.04,10,10,10,13,4,16,0.00,0,,199
2014-1-26,63,49,35,53,41,33,92,70,47,30.03,29.91,29.79,10,10,10,14,6,17,0.00,3,,155
2014-1-27,58,45,32,54,39,8,100,66,32,30.25,30.01,29.83,10,8,2,22,10,30,T,6,Rain,37
2014-1-28,32,27,22,19,17,9,92,64,36,30.47,30.35,30.23,10,7,1,22,9,39,T,5,Rain-Snow,15
2014-1-29,35,27,19,15,11,8,84,60,35,30.54,30.45,30.36,10,10,10,9,3,11,0.00,0,,101
2014-1-30,50,33,16,38,22,12,88,61,34,30.35,30.20,30.06,10,10,10,17,7,22,0.00,1,,139
2014-1-31,68,54,40,51,45,37,92,75,58,30.09,30.03,29.98,10,10,10,18,10,23,0.00,6,,149